createdAt,value
2022-12-23T00:01:15.401Z,9.9
2022-12-23T00:11:15.876Z,9.9
2022-12-23T00:21:16.512Z,9.9
2022-12-23T00:31:17.244Z,9.9
2022-12-23T00:41:17.454Z,9.9
2022-12-23T00:51:17.631Z,9.8
2022-12-23T01:01:18.466Z,9.8
2022-12-23T01:11:19.427Z,9.8
2022-12-23T01:31:20.184Z,9.8
2022-12-23T01:41:21.114Z,9.8
2022-12-23T01:51:21.263Z,9.8
2022-12-23T02:01:21.873Z,9.8
2022-12-23T02:11:22.768Z,9.8
2022-12-23T02:21:22.928Z,9.8
2022-12-23T02:31:23.578Z,9.9
2022-12-23T02:41:24.496Z,9.8
2022-12-23T02:51:25.180Z,9.8
2022-12-23T03:01:25.336Z,9.8
2022-12-23T03:21:26.973Z,9.8
2022-12-23T03:41:28.178Z,9.9
2022-12-23T03:51:29.165Z,9.9
2022-12-23T04:01:30.240Z,9.9
2022-12-23T04:11:30.320Z,9.8
2022-12-23T04:21:31.057Z,9.8
2022-12-23T04:41:32.141Z,9.7
2022-12-23T04:51:32.474Z,9.7
2022-12-23T05:01:33.303Z,9.7
2022-12-23T05:11:37.166Z,9.7
2022-12-23T05:21:34.052Z,9.7
2022-12-23T05:31:34.793Z,9.7
2022-12-23T05:41:35.207Z,9.7
2022-12-23T05:51:36.045Z,9.7
2022-12-23T06:01:37.082Z,9.7
2022-12-23T06:11:37.903Z,9.7
2022-12-23T06:21:38.552Z,9.7
2022-12-23T06:31:39.528Z,9.7
2022-12-23T06:51:39.944Z,9.6
2022-12-23T07:01:40.280Z,9.6
2022-12-23T07:11:40.876Z,9.6
2022-12-23T07:31:42.445Z,9.5
2022-12-23T07:41:42.493Z,9.5
2022-12-23T08:01:44.311Z,9.5
2022-12-23T08:11:44.590Z,9.4
2022-12-23T08:21:45.326Z,9.4
2022-12-23T08:31:45.919Z,9.4
2022-12-23T08:51:46.816Z,9.3
2022-12-23T09:11:47.391Z,9.3
2022-12-23T10:21:50.515Z,9.2
2022-12-23T10:31:50.877Z,9.3
2022-12-23T10:41:51.945Z,9.3
2022-12-23T10:51:52.384Z,9.3
2022-12-23T11:11:53.592Z,9.5
2022-12-23T11:21:54.446Z,9.5
2022-12-23T11:31:55.532Z,9.5
2022-12-23T11:41:56.078Z,9.6
2022-12-23T11:51:56.170Z,9.6
2022-12-23T12:01:56.939Z,9.6
2022-12-23T12:11:57.186Z,9.6
2022-12-23T12:21:58.080Z,9.5
2022-12-23T12:31:58.344Z,9.5
2022-12-23T12:42:05.150Z,9.5
2022-12-23T12:51:59.771Z,9.4
2022-12-23T13:12:01.753Z,9.3
2022-12-23T13:22:02.077Z,9.3
2022-12-23T13:32:03.134Z,9.3
2022-12-23T13:42:05.889Z,9.3
2022-12-23T13:52:04.255Z,9.3
2022-12-23T14:32:06.981Z,9.4
2022-12-23T15:02:08.828Z,9.3
2022-12-23T15:12:09.439Z,9.3
2022-12-23T15:22:19.760Z,9.2
2022-12-23T15:32:09.725Z,9.1
2022-12-23T15:42:10.134Z,9.1
2022-12-23T15:52:18.021Z,9
2022-12-23T16:12:11.898Z,9
2022-12-23T16:32:12.613Z,8.9
2022-12-23T16:42:13.252Z,8.9
2022-12-23T16:52:13.727Z,8.9
2022-12-23T17:02:14.019Z,8.9
2022-12-23T17:12:14.687Z,9
2022-12-23T19:12:22.863Z,11
2022-12-23T20:12:26.779Z,10.9
2022-12-23T21:02:29.707Z,10.8
2022-12-23T21:22:30.654Z,10.7
2022-12-23T21:32:30.879Z,10.7
2022-12-23T21:52:32.037Z,10.4
2022-12-23T22:12:32.398Z,10.4
2022-12-23T22:32:36.588Z,10.4
2022-12-23T22:52:34.599Z,10.3
2022-12-23T23:12:36.402Z,10.1
2022-12-23T23:22:37.455Z,10.2
2022-12-23T23:32:38.538Z,10.2
2022-12-23T23:52:39.072Z,10.1
